sensor_id;sensor_type;location;lat;lon;timestamp;pressure;altitude;pressure_sealevel;temperature;humidity
11329;BME280;5719;42.714;23.732;2023-07-31T00:01:57;94116.69;;;21.82;100.00
11329;BME280;5719;42.714;23.732;2023-07-31T00:04:24;94121.44;;;21.72;100.00
11329;BME280;5719;42.714;23.732;2023-07-31T00:06:52;94121.84;;;21.54;100.00
11329;BME280;5719;42.714;23.732;2023-07-31T00:09:19;94128.91;;;21.53;100.00
11329;BME280;5719;42.714;23.732;2023-07-31T00:11:46;94126.22;;;21.47;100.00
11329;BME280;5719;42.714;23.732;2023-07-31T00:14:12;94122.16;;;21.44;100.00
11329;BME280;5719;42.714;23.732;2023-07-31T00:16:39;94116.97;;;21.51;100.00
11329;BME280;5719;42.714;23.732;2023-07-31T00:19:06;94104.19;;;21.48;100.00
11329;BME280;5719;42.714;23.732;2023-07-31T00:21:33;94118.22;;;21.55;100.00
11329;BME280;5719;42.714;23.732;2023-07-31T00:24:02;94126.09;;;21.55;100.00
11329;BME280;5719;42.714;23.732;2023-07-31T00:26:29;94126.56;;;21.59;100.00
11329;BME280;5719;42.714;23.732;2023-07-31T00:28:55;94083.16;;;21.33;100.00
11329;BME280;5719;42.714;23.732;2023-07-31T00:31:22;94104.41;;;21.53;100.00
11329;BME280;5719;42.714;23.732;2023-07-31T00:33:49;94102.44;;;21.55;100.00
11329;BME280;5719;42.714;23.732;2023-07-31T00:36:16;94108.19;;;21.65;100.00
11329;BME280;5719;42.714;23.732;2023-07-31T00:38:43;94112.28;;;21.68;100.00
11329;BME280;5719;42.714;23.732;2023-07-31T00:41:11;94108.25;;;21.72;100.00
11329;BME280;5719;42.714;23.732;2023-07-31T00:43:38;94103.09;;;21.78;100.00
11329;BME280;5719;42.714;23.732;2023-07-31T00:46:05;94105.59;;;21.86;100.00
11329;BME280;5719;42.714;23.732;2023-07-31T00:48:33;94106.69;;;21.92;100.00
11329;BME280;5719;42.714;23.732;2023-07-31T00:51:01;94099.94;;;21.89;100.00
11329;BME280;5719;42.714;23.732;2023-07-31T00:53:28;94095.69;;;21.88;100.00
11329;BME280;5719;42.714;23.732;2023-07-31T00:55:55;94088.28;;;21.92;100.00
11329;BME280;5719;42.714;23.732;2023-07-31T00:58:24;94070.84;;;21.91;100.00
11329;BME280;5719;42.714;23.732;2023-07-31T01:00:51;94064.38;;;21.93;100.00
11329;BME280;5719;42.714;23.732;2023-07-31T01:03:18;94050.22;;;21.94;100.00
11329;BME280;5719;42.714;23.732;2023-07-31T01:05:56;94055.19;;;21.89;100.00
11329;BME280;5719;42.714;23.732;2023-07-31T01:08:32;94056.41;;;21.87;100.00
11329;BME280;5719;42.714;23.732;2023-07-31T01:11:07;94061.66;;;21.87;100.00
11329;BME280;5719;42.714;23.732;2023-07-31T01:13:36;94071.19;;;21.88;100.00
11329;BME280;5719;42.714;23.732;2023-07-31T01:16:03;94061.16;;;21.77;100.00
11329;BME280;5719;42.714;23.732;2023-07-31T01:18:30;94055.19;;;21.68;100.00
11329;BME280;5719;42.714;23.732;2023-07-31T01:21:02;94055.53;;;21.59;100.00
11329;BME280;5719;42.714;23.732;2023-07-31T01:26:34;94033.22;;;21.55;100.00
11329;BME280;5719;42.714;23.732;2023-07-31T01:29:07;94051.38;;;21.49;100.00
11329;BME280;5719;42.714;23.732;2023-07-31T01:31:38;94047.84;;;21.42;100.00
11329;BME280;5719;42.714;23.732;2023-07-31T01:34:06;94027.63;;;21.43;100.00
11329;BME280;5719;42.714;23.732;2023-07-31T01:36:35;94035.59;;;21.49;100.00
11329;BME280;5719;42.714;23.732;2023-07-31T01:39:02;94034.34;;;21.45;100.00
11329;BME280;5719;42.714;23.732;2023-07-31T01:41:29;94037.53;;;21.41;100.00
11329;BME280;5719;42.714;23.732;2023-07-31T01:43:58;94027.00;;;21.41;100.00
11329;BME280;5719;42.714;23.732;2023-07-31T01:46:25;94028.06;;;21.46;100.00
11329;BME280;5719;42.714;23.732;2023-07-31T01:48:51;94031.72;;;21.45;100.00
11329;BME280;5719;42.714;23.732;2023-07-31T01:51:18;93992.22;;;21.24;100.00
11329;BME280;5719;42.714;23.732;2023-07-31T01:53:45;94037.59;;;21.47;100.00
11329;BME280;5719;42.714;23.732;2023-07-31T01:56:12;94034.53;;;21.44;100.00
11329;BME280;5719;42.714;23.732;2023-07-31T01:58:40;94027.84;;;21.41;100.00
11329;BME280;5719;42.714;23.732;2023-07-31T02:01:09;94016.06;;;21.37;100.00
11329;BME280;5719;42.714;23.732;2023-07-31T02:03:35;94022.97;;;21.38;100.00
11329;BME280;5719;42.714;23.732;2023-07-31T02:06:02;94036.81;;;21.32;100.00
11329;BME280;5719;42.714;23.732;2023-07-31T02:08:29;94044.22;;;21.22;100.00
11329;BME280;5719;42.714;23.732;2023-07-31T02:10:56;94046.66;;;21.09;100.00
11329;BME280;5719;42.714;23.732;2023-07-31T02:13:23;94047.66;;;21.08;100.00
11329;BME280;5719;42.714;23.732;2023-07-31T02:15:49;94052.09;;;21.08;100.00
11329;BME280;5719;42.714;23.732;2023-07-31T02:18:18;94051.19;;;21.00;100.00
11329;BME280;5719;42.714;23.732;2023-07-31T02:20:49;94069.41;;;21.02;100.00
11329;BME280;5719;42.714;23.732;2023-07-31T02:23:16;94067.59;;;21.02;100.00
11329;BME280;5719;42.714;23.732;2023-07-31T02:25:43;94072.22;;;21.00;100.00
11329;BME280;5719;42.714;23.732;2023-07-31T02:28:10;94069.69;;;20.78;100.00
11329;BME280;5719;42.714;23.732;2023-07-31T02:30:37;94080.03;;;20.79;100.00
11329;BME280;5719;42.714;23.732;2023-07-31T02:33:04;94080.84;;;20.80;100.00
11329;BME280;5719;42.714;23.732;2023-07-31T02:35:32;94080.56;;;20.75;100.00
11329;BME280;5719;42.714;23.732;2023-07-31T02:37:59;94079.56;;;20.61;100.00
11329;BME280;5719;42.714;23.732;2023-07-31T02:40:26;94083.19;;;20.60;100.00
11329;BME280;5719;42.714;23.732;2023-07-31T02:42:53;94082.47;;;20.66;100.00
11329;BME280;5719;42.714;23.732;2023-07-31T02:45:20;94092.81;;;20.68;100.00
11329;BME280;5719;42.714;23.732;2023-07-31T02:47:46;94086.81;;;20.74;100.00
11329;BME280;5719;42.714;23.732;2023-07-31T02:50:13;94069.44;;;20.73;100.00
11329;BME280;5719;42.714;23.732;2023-07-31T02:52:42;94088.09;;;20.78;100.00
11329;BME280;5719;42.714;23.732;2023-07-31T02:55:08;94081.63;;;20.80;100.00
11329;BME280;5719;42.714;23.732;2023-07-31T02:57:35;94082.09;;;20.84;100.00
11329;BME280;5719;42.714;23.732;2023-07-31T03:00:02;94069.44;;;20.73;100.00
11329;BME280;5719;42.714;23.732;2023-07-31T03:02:31;94071.25;;;20.72;100.00
11329;BME280;5719;42.714;23.732;2023-07-31T03:04:58;94080.47;;;20.83;100.00
11329;BME280;5719;42.714;23.732;2023-07-31T03:07:25;94063.69;;;20.84;100.00
11329;BME280;5719;42.714;23.732;2023-07-31T03:09:54;94058.56;;;20.90;100.00
11329;BME280;5719;42.714;23.732;2023-07-31T03:12:21;94036.63;;;20.83;100.00
11329;BME280;5719;42.714;23.732;2023-07-31T03:14:48;94052.19;;;20.85;100.00
11329;BME280;5719;42.714;23.732;2023-07-31T03:17:15;94060.28;;;20.83;100.00
11329;BME280;5719;42.714;23.732;2023-07-31T03:19:41;94075.59;;;20.80;100.00
11329;BME280;5719;42.714;23.732;2023-07-31T03:22:08;94073.06;;;20.72;100.00
11329;BME280;5719;42.714;23.732;2023-07-31T03:24:35;94086.56;;;20.69;100.00
11329;BME280;5719;42.714;23.732;2023-07-31T03:27:04;94092.78;;;20.53;100.00
11329;BME280;5719;42.714;23.732;2023-07-31T03:29:31;94087.09;;;20.49;100.00
11329;BME280;5719;42.714;23.732;2023-07-31T03:31:58;94099.56;;;20.47;100.00
11329;BME280;5719;42.714;23.732;2023-07-31T03:34:25;94093.50;;;20.32;100.00
11329;BME280;5719;42.714;23.732;2023-07-31T03:36:52;94090.91;;;20.24;100.00
11329;BME280;5719;42.714;23.732;2023-07-31T03:39:19;94093.69;;;20.23;100.00
11329;BME280;5719;42.714;23.732;2023-07-31T03:41:45;94100.22;;;20.27;100.00
11329;BME280;5719;42.714;23.732;2023-07-31T03:44:14;94108.28;;;20.25;100.00
11329;BME280;5719;42.714;23.732;2023-07-31T03:46:41;94108.63;;;20.22;100.00
11329;BME280;5719;42.714;23.732;2023-07-31T03:49:08;94106.66;;;20.24;100.00
11329;BME280;5719;42.714;23.732;2023-07-31T03:51:34;94102.34;;;20.31;100.00
11329;BME280;5719;42.714;23.732;2023-07-31T03:54:01;94104.00;;;20.32;100.00
11329;BME280;5719;42.714;23.732;2023-07-31T03:56:28;94099.38;;;20.34;100.00
11329;BME280;5719;42.714;23.732;2023-07-31T03:58:55;94102.91;;;20.41;100.00
11329;BME280;5719;42.714;23.732;2023-07-31T04:01:23;94099.09;;;20.44;100.00
11329;BME280;5719;42.714;23.732;2023-07-31T04:03:50;94114.59;;;20.39;100.00
11329;BME280;5719;42.714;23.732;2023-07-31T04:06:17;94116.09;;;20.33;100.00
11329;BME280;5719;42.714;23.732;2023-07-31T04:08:44;94112.84;;;20.31;100.00
11329;BME280;5719;42.714;23.732;2023-07-31T04:11:11;94100.13;;;20.20;100.00
11329;BME280;5719;42.714;23.732;2023-07-31T04:13:38;94102.34;;;20.31;100.00
11329;BME280;5719;42.714;23.732;2023-07-31T04:16:05;94100.19;;;20.35;100.00
11329;BME280;5719;42.714;23.732;2023-07-31T04:18:33;94110.16;;;20.39;100.00
11329;BME280;5719;42.714;23.732;2023-07-31T04:21:00;94115.06;;;20.42;100.00
11329;BME280;5719;42.714;23.732;2023-07-31T04:23:28;94115.31;;;20.47;100.00
11329;BME280;5719;42.714;23.732;2023-07-31T04:25:55;94102.63;;;20.51;100.00
11329;BME280;5719;42.714;23.732;2023-07-31T04:28:21;94110.59;;;20.28;100.00
11329;BME280;5719;42.714;23.732;2023-07-31T04:30:48;94119.38;;;20.35;100.00
11329;BME280;5719;42.714;23.732;2023-07-31T04:33:15;94122.19;;;20.48;100.00
11329;BME280;5719;42.714;23.732;2023-07-31T04:35:49;94125.38;;;20.59;100.00
11329;BME280;5719;42.714;23.732;2023-07-31T04:38:17;94124.69;;;20.65;100.00
11329;BME280;5719;42.714;23.732;2023-07-31T04:40:44;94123.69;;;20.80;100.00
11329;BME280;5719;42.714;23.732;2023-07-31T04:43:11;94121.06;;;20.95;100.00
11329;BME280;5719;42.714;23.732;2023-07-31T04:45:38;94132.84;;;20.99;100.00
11329;BME280;5719;42.714;23.732;2023-07-31T04:48:05;94135.75;;;21.04;100.00
11329;BME280;5719;42.714;23.732;2023-07-31T04:50:32;94127.00;;;21.12;100.00
11329;BME280;5719;42.714;23.732;2023-07-31T04:53:00;94131.44;;;21.11;100.00
11329;BME280;5719;42.714;23.732;2023-07-31T04:55:27;94120.00;;;21.19;100.00
11329;BME280;5719;42.714;23.732;2023-07-31T04:57:54;94132.06;;;21.13;100.00
11329;BME280;5719;42.714;23.732;2023-07-31T05:00:21;94125.59;;;21.01;100.00
11329;BME280;5719;42.714;23.732;2023-07-31T05:02:48;94118.09;;;20.98;100.00
11329;BME280;5719;42.714;23.732;2023-07-31T05:05:15;94123.81;;;21.16;100.00
11329;BME280;5719;42.714;23.732;2023-07-31T05:07:42;94126.63;;;21.15;100.00
11329;BME280;5719;42.714;23.732;2023-07-31T05:10:10;94102.06;;;21.22;100.00
11329;BME280;5719;42.714;23.732;2023-07-31T05:12:37;94108.28;;;21.21;100.00
11329;BME280;5719;42.714;23.732;2023-07-31T05:15:05;94113.47;;;21.29;100.00
11329;BME280;5719;42.714;23.732;2023-07-31T05:17:32;94119.16;;;21.33;100.00
11329;BME280;5719;42.714;23.732;2023-07-31T05:19:59;94119.00;;;21.34;100.00
11329;BME280;5719;42.714;23.732;2023-07-31T05:22:26;94118.09;;;21.27;100.00
11329;BME280;5719;42.714;23.732;2023-07-31T05:24:53;94101.78;;;21.17;100.00
11329;BME280;5719;42.714;23.732;2023-07-31T05:27:22;94120.25;;;21.09;100.00
11329;BME280;5719;42.714;23.732;2023-07-31T05:29:48;94116.63;;;20.95;100.00
11329;BME280;5719;42.714;23.732;2023-07-31T05:32:15;94102.56;;;20.74;100.00
11329;BME280;5719;42.714;23.732;2023-07-31T05:34:42;94110.75;;;20.79;100.00
11329;BME280;5719;42.714;23.732;2023-07-31T05:37:10;94103.84;;;20.78;100.00
11329;BME280;5719;42.714;23.732;2023-07-31T05:39:37;94102.22;;;20.77;100.00
11329;BME280;5719;42.714;23.732;2023-07-31T05:42:04;94103.47;;;20.81;100.00
11329;BME280;5719;42.714;23.732;2023-07-31T05:44:33;94103.09;;;20.98;100.00
11329;BME280;5719;42.714;23.732;2023-07-31T05:47:00;94100.03;;;20.95;100.00
11329;BME280;5719;42.714;23.732;2023-07-31T05:49:27;94099.88;;;21.11;100.00
11329;BME280;5719;42.714;23.732;2023-07-31T05:51:54;94112.41;;;21.24;100.00
11329;BME280;5719;42.714;23.732;2023-07-31T05:54:21;94101.59;;;21.19;100.00
11329;BME280;5719;42.714;23.732;2023-07-31T05:56:48;94097.69;;;21.29;100.00
11329;BME280;5719;42.714;23.732;2023-07-31T05:59:16;94087.53;;;21.26;100.00
11329;BME280;5719;42.714;23.732;2023-07-31T06:01:44;94102.03;;;21.37;100.00
11329;BME280;5719;42.714;23.732;2023-07-31T06:04:11;94065.34;;;21.14;100.00
11329;BME280;5719;42.714;23.732;2023-07-31T06:06:38;94106.47;;;21.36;100.00
11329;BME280;5719;42.714;23.732;2023-07-31T06:09:05;94101.66;;;21.40;100.00
11329;BME280;5719;42.714;23.732;2023-07-31T06:11:32;94105.47;;;21.37;100.00
11329;BME280;5719;42.714;23.732;2023-07-31T06:14:01;94102.09;;;21.43;100.00
11329;BME280;5719;42.714;23.732;2023-07-31T06:16:28;94103.88;;;21.58;100.00
11329;BME280;5719;42.714;23.732;2023-07-31T06:18:56;94103.66;;;21.74;100.00
11329;BME280;5719;42.714;23.732;2023-07-31T06:21:24;94101.53;;;22.05;100.00
11329;BME280;5719;42.714;23.732;2023-07-31T06:23:51;94100.75;;;21.90;100.00
11329;BME280;5719;42.714;23.732;2023-07-31T06:26:18;94089.63;;;22.09;100.00
11329;BME280;5719;42.714;23.732;2023-07-31T06:28:45;94108.47;;;22.34;100.00
11329;BME280;5719;42.714;23.732;2023-07-31T06:31:12;94100.25;;;22.43;100.00
11329;BME280;5719;42.714;23.732;2023-07-31T06:33:39;94108.78;;;22.45;100.00
11329;BME280;5719;42.714;23.732;2023-07-31T06:36:08;94111.03;;;22.48;100.00
11329;BME280;5719;42.714;23.732;2023-07-31T06:38:35;94106.78;;;22.26;100.00
11329;BME280;5719;42.714;23.732;2023-07-31T06:41:03;94109.88;;;22.09;100.00
11329;BME280;5719;42.714;23.732;2023-07-31T06:43:30;94100.97;;;21.88;100.00
11329;BME280;5719;42.714;23.732;2023-07-31T06:45:57;94104.22;;;22.12;100.00
11329;BME280;5719;42.714;23.732;2023-07-31T06:48:24;94112.06;;;22.26;100.00
11329;BME280;5719;42.714;23.732;2023-07-31T06:50:51;94106.06;;;22.32;100.00
11329;BME280;5719;42.714;23.732;2023-07-31T06:53:19;94101.66;;;22.39;100.00
11329;BME280;5719;42.714;23.732;2023-07-31T06:55:46;94093.56;;;22.20;100.00
11329;BME280;5719;42.714;23.732;2023-07-31T06:58:14;94097.91;;;22.27;100.00
11329;BME280;5719;42.714;23.732;2023-07-31T07:00:41;94093.63;;;22.26;100.00
11329;BME280;5719;42.714;23.732;2023-07-31T07:03:08;94102.34;;;22.27;100.00
11329;BME280;5719;42.714;23.732;2023-07-31T07:05:35;94103.25;;;22.40;100.00
11329;BME280;5719;42.714;23.732;2023-07-31T07:08:02;94098.16;;;22.32;100.00
11329;BME280;5719;42.714;23.732;2023-07-31T07:10:33;94092.16;;;22.17;100.00
11329;BME280;5719;42.714;23.732;2023-07-31T07:13:00;94102.25;;;22.14;100.00
11329;BME280;5719;42.714;23.732;2023-07-31T07:15:27;94102.88;;;21.94;100.00
11329;BME280;5719;42.714;23.732;2023-07-31T07:17:54;94103.06;;;21.93;100.00
11329;BME280;5719;42.714;23.732;2023-07-31T07:20:21;94097.97;;;21.91;100.00
11329;BME280;5719;42.714;23.732;2023-07-31T07:22:48;94092.66;;;22.06;100.00
11329;BME280;5719;42.714;23.732;2023-07-31T07:25:16;94096.53;;;22.10;100.00
11329;BME280;5719;42.714;23.732;2023-07-31T07:27:44;94090.13;;;22.19;100.00
11329;BME280;5719;42.714;23.732;2023-07-31T07:30:11;94088.13;;;22.21;100.00
11329;BME280;5719;42.714;23.732;2023-07-31T07:32:39;94101.53;;;22.26;100.00
11329;BME280;5719;42.714;23.732;2023-07-31T07:35:07;94095.59;;;22.45;100.00
11329;BME280;5719;42.714;23.732;2023-07-31T07:37:34;94080.69;;;22.80;100.00
11329;BME280;5719;42.714;23.732;2023-07-31T07:40:01;94090.91;;;22.96;99.75
11329;BME280;5719;42.714;23.732;2023-07-31T07:42:28;94103.00;;;22.84;96.84
11329;BME280;5719;42.714;23.732;2023-07-31T07:44:57;94093.91;;;22.87;94.09
11329;BME280;5719;42.714;23.732;2023-07-31T07:47:24;94103.81;;;22.85;94.63
11329;BME280;5719;42.714;23.732;2023-07-31T07:49:50;94106.94;;;22.95;97.99
11329;BME280;5719;42.714;23.732;2023-07-31T07:52:17;94101.94;;;22.79;96.68
11329;BME280;5719;42.714;23.732;2023-07-31T07:54:44;94104.13;;;23.03;98.04
11329;BME280;5719;42.714;23.732;2023-07-31T07:57:11;94105.97;;;23.50;97.02
11329;BME280;5719;42.714;23.732;2023-07-31T07:59:38;94094.53;;;23.90;86.19
11329;BME280;5719;42.714;23.732;2023-07-31T08:02:06;94107.00;;;24.29;86.07
11329;BME280;5719;42.714;23.732;2023-07-31T08:04:33;94104.56;;;24.34;89.39
11329;BME280;5719;42.714;23.732;2023-07-31T08:07:00;94102.94;;;24.53;81.42
11329;BME280;5719;42.714;23.732;2023-07-31T08:09:27;94112.69;;;24.85;82.02
11329;BME280;5719;42.714;23.732;2023-07-31T08:11:54;94102.69;;;24.81;80.35
11329;BME280;5719;42.714;23.732;2023-07-31T08:14:23;94100.50;;;24.38;83.96
11329;BME280;5719;42.714;23.732;2023-07-31T08:16:50;94099.22;;;24.08;85.86
11329;BME280;5719;42.714;23.732;2023-07-31T08:19:18;94102.84;;;23.87;86.82
11329;BME280;5719;42.714;23.732;2023-07-31T08:21:45;94106.94;;;24.03;85.75
11329;BME280;5719;42.714;23.732;2023-07-31T08:24:12;94111.88;;;24.46;81.28
11329;BME280;5719;42.714;23.732;2023-07-31T08:26:39;94114.72;;;24.37;84.19
11329;BME280;5719;42.714;23.732;2023-07-31T08:29:06;94112.09;;;24.24;83.50
11329;BME280;5719;42.714;23.732;2023-07-31T08:31:33;94100.84;;;23.89;83.48
11329;BME280;5719;42.714;23.732;2023-07-31T08:34:01;94100.84;;;23.89;83.03
11329;BME280;5719;42.714;23.732;2023-07-31T08:36:29;94114.53;;;24.32;80.47
11329;BME280;5719;42.714;23.732;2023-07-31T08:38:56;94107.38;;;24.92;81.85
11329;BME280;5719;42.714;23.732;2023-07-31T08:41:23;94101.22;;;25.24;79.39
11329;BME280;5719;42.714;23.732;2023-07-31T08:43:52;94090.28;;;25.72;77.75
11329;BME280;5719;42.714;23.732;2023-07-31T08:46:20;94095.00;;;25.95;73.35
11329;BME280;5719;42.714;23.732;2023-07-31T08:48:48;94109.50;;;25.92;72.18
11329;BME280;5719;42.714;23.732;2023-07-31T08:51:15;94099.38;;;25.31;73.00
11329;BME280;5719;42.714;23.732;2023-07-31T08:53:43;94112.25;;;25.08;74.62
11329;BME280;5719;42.714;23.732;2023-07-31T08:56:11;94117.38;;;24.64;76.33
11329;BME280;5719;42.714;23.732;2023-07-31T08:58:43;94125.91;;;24.72;77.79
11329;BME280;5719;42.714;23.732;2023-07-31T09:01:11;94127.13;;;24.50;75.52
11329;BME280;5719;42.714;23.732;2023-07-31T09:03:39;94125.31;;;24.51;76.19
11329;BME280;5719;42.714;23.732;2023-07-31T09:06:07;94133.84;;;24.66;75.93
11329;BME280;5719;42.714;23.732;2023-07-31T09:08:34;94128.56;;;24.66;76.68
11329;BME280;5719;42.714;23.732;2023-07-31T09:11:02;94121.44;;;24.86;76.38
11329;BME280;5719;42.714;23.732;2023-07-31T09:13:31;94133.84;;;24.92;76.22
11329;BME280;5719;42.714;23.732;2023-07-31T09:15:58;94130.97;;;25.00;74.05
11329;BME280;5719;42.714;23.732;2023-07-31T09:18:25;94124.44;;;25.16;72.83
11329;BME280;5719;42.714;23.732;2023-07-31T09:21:02;94123.78;;;25.33;72.80
11329;BME280;5719;42.714;23.732;2023-07-31T09:23:40;94118.25;;;25.42;68.44
11329;BME280;5719;42.714;23.732;2023-07-31T09:26:09;94118.94;;;25.17;70.11
11329;BME280;5719;42.714;23.732;2023-07-31T09:28:36;94118.94;;;25.11;67.71
11329;BME280;5719;42.714;23.732;2023-07-31T09:31:03;94105.91;;;25.22;68.94
11329;BME280;5719;42.714;23.732;2023-07-31T09:33:30;94104.03;;;25.87;68.00
11329;BME280;5719;42.714;23.732;2023-07-31T09:35:58;94089.97;;;26.24;62.90
11329;BME280;5719;42.714;23.732;2023-07-31T09:38:26;94092.72;;;26.61;62.85
11329;BME280;5719;42.714;23.732;2023-07-31T09:40:53;94089.59;;;26.46;63.34
11329;BME280;5719;42.714;23.732;2023-07-31T09:43:22;94093.28;;;26.45;66.05
11329;BME280;5719;42.714;23.732;2023-07-31T09:45:55;94091.47;;;26.07;64.39
11329;BME280;5719;42.714;23.732;2023-07-31T09:48:24;94094.09;;;25.76;67.59
11329;BME280;5719;42.714;23.732;2023-07-31T09:50:53;94085.66;;;25.48;69.74
11329;BME280;5719;42.714;23.732;2023-07-31T09:53:28;94096.69;;;25.38;71.86
11329;BME280;5719;42.714;23.732;2023-07-31T09:55:58;94082.84;;;25.43;68.17
11329;BME280;5719;42.714;23.732;2023-07-31T09:58:28;94077.63;;;25.74;68.69
11329;BME280;5719;42.714;23.732;2023-07-31T10:00:57;94076.72;;;26.24;68.79
11329;BME280;5719;42.714;23.732;2023-07-31T10:03:25;94087.16;;;26.69;65.79
11329;BME280;5719;42.714;23.732;2023-07-31T10:05:55;94090.41;;;26.96;59.99
11329;BME280;5719;42.714;23.732;2023-07-31T10:08:27;94100.06;;;27.26;57.66
11329;BME280;5719;42.714;23.732;2023-07-31T10:10:58;94088.44;;;27.64;56.60
11329;BME280;5719;42.714;23.732;2023-07-31T10:13:27;94088.50;;;27.87;52.16
11329;BME280;5719;42.714;23.732;2023-07-31T10:15:59;94103.69;;;27.87;55.33
11329;BME280;5719;42.714;23.732;2023-07-31T10:18:27;94094.78;;;27.63;55.91
11329;BME280;5719;42.714;23.732;2023-07-31T10:20:55;94099.06;;;27.64;57.60
11329;BME280;5719;42.714;23.732;2023-07-31T10:23:23;94098.66;;;27.78;55.61
11329;BME280;5719;42.714;23.732;2023-07-31T10:25:53;94098.03;;;27.95;53.96
11329;BME280;5719;42.714;23.732;2023-07-31T10:28:20;94102.75;;;28.11;52.28
11329;BME280;5719;42.714;23.732;2023-07-31T10:30:49;94095.28;;;28.19;52.33
11329;BME280;5719;42.714;23.732;2023-07-31T10:33:17;94092.75;;;28.06;52.11
11329;BME280;5719;42.714;23.732;2023-07-31T10:35:47;94082.38;;;28.05;54.44
11329;BME280;5719;42.714;23.732;2023-07-31T10:38:14;94090.34;;;28.05;54.30
11329;BME280;5719;42.714;23.732;2023-07-31T10:40:41;94091.91;;;28.12;55.00
11329;BME280;5719;42.714;23.732;2023-07-31T10:43:08;94091.53;;;28.62;56.54
11329;BME280;5719;42.714;23.732;2023-07-31T10:45:38;94077.22;;;29.09;50.62
11329;BME280;5719;42.714;23.732;2023-07-31T10:48:12;94065.47;;;29.45;48.69
11329;BME280;5719;42.714;23.732;2023-07-31T10:50:47;94081.91;;;29.54;47.53
11329;BME280;5719;42.714;23.732;2023-07-31T10:53:23;94086.44;;;29.42;47.74
11329;BME280;5719;42.714;23.732;2023-07-31T10:55:50;94075.69;;;29.25;48.46
11329;BME280;5719;42.714;23.732;2023-07-31T10:58:19;94081.63;;;28.92;49.53
11329;BME280;5719;42.714;23.732;2023-07-31T11:00:46;94074.56;;;28.86;50.12
11329;BME280;5719;42.714;23.732;2023-07-31T11:03:16;94084.28;;;28.81;49.35
11329;BME280;5719;42.714;23.732;2023-07-31T11:05:59;94075.25;;;28.70;48.58
11329;BME280;5719;42.714;23.732;2023-07-31T11:08:29;94065.03;;;28.55;48.71
11329;BME280;5719;42.714;23.732;2023-07-31T11:11:07;94068.25;;;28.46;50.66
11329;BME280;5719;42.714;23.732;2023-07-31T11:13:40;94061.78;;;28.00;50.01
11329;BME280;5719;42.714;23.732;2023-07-31T11:16:08;94063.81;;;27.98;51.85
11329;BME280;5719;42.714;23.732;2023-07-31T11:18:38;94059.06;;;28.18;52.54
11329;BME280;5719;42.714;23.732;2023-07-31T11:21:06;94046.47;;;28.14;48.47
11329;BME280;5719;42.714;23.732;2023-07-31T11:23:33;94053.50;;;28.08;50.40
11329;BME280;5719;42.714;23.732;2023-07-31T11:26:00;94054.13;;;28.22;52.26
11329;BME280;5719;42.714;23.732;2023-07-31T11:28:31;94062.06;;;28.10;50.86
11329;BME280;5719;42.714;23.732;2023-07-31T11:30:59;94061.75;;;28.18;49.19
11329;BME280;5719;42.714;23.732;2023-07-31T11:33:27;94064.19;;;28.32;49.61
11329;BME280;5719;42.714;23.732;2023-07-31T11:35:55;94069.31;;;28.45;49.95
11329;BME280;5719;42.714;23.732;2023-07-31T11:38:22;94055.16;;;28.33;49.79
11329;BME280;5719;42.714;23.732;2023-07-31T11:40:50;94058.31;;;28.41;51.49
11329;BME280;5719;42.714;23.732;2023-07-31T11:43:18;94055.38;;;28.31;52.46
11329;BME280;5719;42.714;23.732;2023-07-31T11:45:46;94052.06;;;28.06;51.33
11329;BME280;5719;42.714;23.732;2023-07-31T11:48:19;94041.00;;;28.09;51.47
11329;BME280;5719;42.714;23.732;2023-07-31T11:50:50;94053.88;;;28.23;50.78
11329;BME280;5719;42.714;23.732;2023-07-31T11:53:21;94054.13;;;28.34;51.84
11329;BME280;5719;42.714;23.732;2023-07-31T11:55:50;94059.31;;;28.29;51.99
11329;BME280;5719;42.714;23.732;2023-07-31T11:58:17;94053.88;;;28.23;51.37
11329;BME280;5719;42.714;23.732;2023-07-31T12:00:45;94060.66;;;28.08;49.79
11329;BME280;5719;42.714;23.732;2023-07-31T12:03:13;94066.34;;;28.11;50.92
11329;BME280;5719;42.714;23.732;2023-07-31T12:05:40;94049.97;;;27.96;50.17
11329;BME280;5719;42.714;23.732;2023-07-31T12:08:11;94054.09;;;28.10;51.04
11329;BME280;5719;42.714;23.732;2023-07-31T12:10:40;94055.53;;;28.48;50.94
11329;BME280;5719;42.714;23.732;2023-07-31T12:13:09;94048.28;;;29.01;50.04
11329;BME280;5719;42.714;23.732;2023-07-31T12:15:40;94036.63;;;29.54;49.74
11329;BME280;5719;42.714;23.732;2023-07-31T12:18:08;94039.34;;;29.99;49.62
11329;BME280;5719;42.714;23.732;2023-07-31T12:20:40;94042.78;;;30.28;47.41
11329;BME280;5719;42.714;23.732;2023-07-31T12:23:13;93988.97;;;30.31;47.57
11329;BME280;5719;42.714;23.732;2023-07-31T12:25:42;94037.09;;;30.52;44.86
11329;BME280;5719;42.714;23.732;2023-07-31T12:28:09;94029.66;;;30.09;45.99
11329;BME280;5719;42.714;23.732;2023-07-31T12:30:39;94022.84;;;29.85;46.59
11329;BME280;5719;42.714;23.732;2023-07-31T12:33:12;94015.44;;;29.87;46.90
11329;BME280;5719;42.714;23.732;2023-07-31T12:35:40;94020.44;;;30.00;46.92
11329;BME280;5719;42.714;23.732;2023-07-31T12:38:08;94012.31;;;29.79;45.80
11329;BME280;5719;42.714;23.732;2023-07-31T12:40:37;94006.66;;;29.75;45.70
11329;BME280;5719;42.714;23.732;2023-07-31T12:43:05;94011.34;;;29.56;46.92
11329;BME280;5719;42.714;23.732;2023-07-31T12:45:33;94016.97;;;29.43;46.75
11329;BME280;5719;42.714;23.732;2023-07-31T12:48:01;94010.72;;;29.38;46.99
11329;BME280;5719;42.714;23.732;2023-07-31T12:50:28;94013.75;;;29.30;46.87
11329;BME280;5719;42.714;23.732;2023-07-31T12:52:55;94018.44;;;28.99;47.75
11329;BME280;5719;42.714;23.732;2023-07-31T12:55:22;94008.69;;;28.93;49.41
11329;BME280;5719;42.714;23.732;2023-07-31T12:57:50;94016.59;;;29.00;48.03
11329;BME280;5719;42.714;23.732;2023-07-31T13:00:18;94013.22;;;28.93;48.25
11329;BME280;5719;42.714;23.732;2023-07-31T13:02:48;94007.81;;;28.76;49.65